Air Navigation Services of Czech Republic
Airport: LKKV Updated:  19.01.2018 14:51:05  UTC
 SPECI LKKV 19.01. 14:45 ...
SPECI LKKV 191445Z 25012KT 6000 -SHSN SCT007 SCT025 M00/M01 Q1007 R29/////// RMK REG QNH 1003=
 SPECI LKKV 19.01. 14:40 ...
SPECI LKKV 191440Z 25011KT 210V270 9999 FEW007 SCT023 M00/M01 Q1007 R29/////// RMK REG QNH 1003=
 METAR LKKV 19.01. 14:30 ...
METAR LKKV 191430Z 25011KT 9999 SCT008 SCT023 M00/M01 Q1006 R29/610295 RMK REG QNH 1003=
 TAF LKKV 19.01. 11:00 ...
TAF LKKV 191100Z 1912/2018 24008KT 9999 BKN025      TEMPO 1912/2000 5000 -SHSN BKN007      PROB40 TEMPO 1912/1918 26012G22KT 1200 SHSN SCT007TCU      BECMG 2001/2003 5000 -SN SCT005 BKN010      TEMPO 2003/2010 24012G22KT 2000 SN BR BKN005      BECMG 2012/2015 16007KT 9999 SCT033=
 WARNING LKKV 19.01. 12:57 ...
LKKV AD WRNG 1 VALID 191300/191500 SN FCST 1 CM NC=